Time;durP1;ratioP1;P1;durP2;ratioP2;P2;SDS_P1;SDS_P2;PMS_P1;PMS_P2;Temp;Humidity;BMP_temperature;BMP_pressure;BME280_temperature;BME280_humidity;BME280_pressure;Samples;Min_cycle;Max_cycle;Signal;HPM_P1;HPM_P2
2022/05/05 00:01:43;;;;;;;;;;;;;;;9.02;39.93;96345.78;6374026;27;19930;-64
2022/05/05 00:04:44;;;;;;;;;;;;;;;9.12;39.96;96346.84;6374235;27;19991;-64
2022/05/05 00:07:46;;;;;;;;;;;;;;;8.94;39.95;96354.97;6374491;27;19930;-63
2022/05/05 00:14:23;;;;;;;;;;;;;;;8.58;40.11;96350.41;6373617;27;19927;-64
2022/05/05 00:17:27;;;;;;;;;;;;;;;8.43;40.41;96346.13;6374430;27;20054;-63
2022/05/05 00:20:28;;;;;;;;;;;;;;;8.30;40.68;96349.53;6373260;27;19924;-64
2022/05/05 00:23:29;;;;;;;;;;;;;;;8.14;41.28;96358.47;6373160;27;19930;-63
2022/05/05 00:26:33;;;;;;;;;;;;;;;8.17;41.20;96358.28;6374184;27;20018;-64
2022/05/05 00:29:34;;;;;;;;;;;;;;;8.16;41.30;96356.59;6355131;27;20001;-63
2022/05/05 00:32:35;;;;;;;;;;;;;;;8.00;41.47;96360.16;6373038;27;19923;-64
2022/05/05 00:35:39;;;;;;;;;;;;;;;7.92;41.79;96359.81;6372895;27;20534;-64
2022/05/05 00:38:44;;;;;;;;;;;;;;;7.83;41.94;96355.13;6373736;27;19927;-63
2022/05/05 00:41:46;;;;;;;;;;;;;;;7.79;41.51;96358.91;6372772;27;20293;-63
2022/05/05 00:44:47;;;;;;;;;;;;;;;7.80;41.82;96360.56;6372738;27;20068;-63
2022/05/05 00:47:48;;;;;;;;;;;;;;;7.86;41.72;96366.25;6372421;27;20015;-64
2022/05/05 00:50:49;;;;;;;;;;;;;;;7.82;41.68;96369.19;6372600;27;20413;-63
2022/05/05 00:53:56;;;;;;;;;;;;;;;7.74;41.61;96369.66;6373420;27;19923;-63
2022/05/05 00:56:59;;;;;;;;;;;;;;;7.51;41.97;96376.28;6372330;27;19931;-63
2022/05/05 01:00:01;;;;;;;;;;;;;;;7.55;42.20;96377.78;6372656;27;20010;-64
2022/05/05 01:03:02;;;;;;;;;;;;;;;7.65;42.01;96381.53;6372346;27;20055;-64
2022/05/05 01:06:04;;;;;;;;;;;;;;;7.48;42.37;96381.72;6372096;27;19929;-64
2022/05/05 01:09:07;;;;;;;;;;;;;;;7.58;42.61;96382.81;6371917;27;20384;-63
2022/05/05 01:12:09;;;;;;;;;;;;;;;7.66;42.47;96390.22;6372171;27;19950;-63
2022/05/05 01:15:11;;;;;;;;;;;;;;;7.68;42.49;96387.53;6371991;27;19923;-64
2022/05/05 01:18:12;;;;;;;;;;;;;;;7.58;42.51;96388.06;6372156;27;19923;-64
2022/05/05 01:21:19;;;;;;;;;;;;;;;7.59;42.21;96388.94;6372696;27;19923;-64
2022/05/05 01:28:10;;;;;;;;;;;;;;;7.86;42.51;96395.06;6371728;27;19924;-63
2022/05/05 01:31:09;;;;;;;;;;;;;;;7.64;42.49;96403.44;6371615;27;19923;-64
2022/05/05 01:34:10;;;;;;;;;;;;;;;7.67;42.34;96410.22;6371573;27;19930;-64
2022/05/05 01:37:14;;;;;;;;;;;;;;;7.62;42.43;96407.91;6372571;27;19931;-63
2022/05/05 01:40:17;;;;;;;;;;;;;;;7.85;42.73;96406.50;6371686;27;20285;-64
2022/05/05 01:43:19;;;;;;;;;;;;;;;7.79;42.40;96412.13;6371499;27;19930;-64
2022/05/05 01:46:20;;;;;;;;;;;;;;;7.81;42.52;96409.38;6372182;27;20296;-64
2022/05/05 01:49:26;;;;;;;;;;;;;;;7.92;42.71;96404.34;6372207;27;19923;-64
2022/05/05 01:52:28;;;;;;;;;;;;;;;8.07;42.56;96410.44;6370869;27;20308;-64
2022/05/05 01:55:32;;;;;;;;;;;;;;;8.25;42.26;96409.25;6372268;27;19932;-64
2022/05/05 01:58:35;;;;;;;;;;;;;;;8.36;42.31;96415.63;6372145;27;19923;-64
2022/05/05 02:01:36;;;;;;;;;;;;;;;8.43;41.83;96412.53;6371268;27;19923;-63
2022/05/05 02:04:37;;;;;;;;;;;;;;;8.56;41.98;96412.59;6371200;27;19946;-63
2022/05/05 02:07:39;;;;;;;;;;;;;;;8.49;41.80;96417.41;6371659;27;20419;-63
2022/05/05 02:10:40;;;;;;;;;;;;;;;8.57;41.96;96416.06;6370581;27;19923;-65
2022/05/05 02:13:41;;;;;;;;;;;;;;;8.73;42.26;96414.13;6353337;27;19929;-64
2022/05/05 02:16:42;;;;;;;;;;;;;;;8.90;42.06;96415.66;6370872;27;19924;-64
2022/05/05 02:19:44;;;;;;;;;;;;;;;8.93;42.29;96415.44;6370768;27;19945;-64
2022/05/05 02:22:45;;;;;;;;;;;;;;;9.04;41.67;96420.00;6371711;28;19923;-64
2022/05/05 02:25:46;;;;;;;;;;;;;;;9.04;41.52;96425.25;6370733;28;19923;-63
2022/05/05 02:28:49;;;;;;;;;;;;;;;9.11;41.55;96421.25;6370438;28;19923;-64
2022/05/05 02:31:50;;;;;;;;;;;;;;;9.39;41.85;96428.13;6371467;28;19923;-64
2022/05/05 02:34:51;;;;;;;;;;;;;;;9.54;41.44;96431.50;6370789;28;19972;-64
2022/05/05 02:41:14;;;;;;;;;;;;;;;9.74;41.20;96428.38;6370485;28;19919;-64
2022/05/05 02:44:15;;;;;;;;;;;;;;;9.92;41.16;96433.31;6373864;27;20285;-65
2022/05/05 02:47:17;;;;;;;;;;;;;;;10.04;40.87;96440.34;6375878;27;19919;-65
2022/05/05 02:50:20;;;;;;;;;;;;;;;10.43;40.59;96435.91;6375889;27;19924;-64
2022/05/05 02:57:01;;;;;;;;;;;;;;;10.73;39.77;96432.88;6304198;27;19924;-64
2022/05/05 03:00:07;;;;;;;;;;;;;;;10.75;39.54;96431.78;6376257;27;20320;-65
2022/05/05 03:03:10;;;;;;;;;;;;;;;10.90;39.69;96428.97;6375777;27;19924;-64
2022/05/05 03:06:11;;;;;;;;;;;;;;;10.89;39.61;96432.56;6374988;27;19923;-64
2022/05/05 03:09:12;;;;;;;;;;;;;;;11.01;39.42;96422.00;6375643;27;20016;-64
2022/05/05 03:12:13;;;;;;;;;;;;;;;11.01;39.49;96431.66;6374606;27;19946;-64
2022/05/05 03:15:19;;;;;;;;;;;;;;;11.07;39.31;96433.88;6375360;27;19927;-65
2022/05/05 03:18:23;;;;;;;;;;;;;;;11.14;39.19;96427.19;6375823;27;20022;-64
2022/05/05 03:21:24;;;;;;;;;;;;;;;11.63;38.17;96428.78;6374628;27;19919;-64
2022/05/05 03:24:26;;;;;;;;;;;;;;;11.69;37.68;96423.03;6374387;27;19930;-64
2022/05/05 03:27:29;;;;;;;;;;;;;;;11.79;37.60;96417.88;6374710;27;19927;-65
2022/05/05 03:30:33;;;;;;;;;;;;;;;11.87;37.54;96414.69;6375275;27;20245;-64
2022/05/05 03:33:37;;;;;;;;;;;;;;;12.01;36.97;96409.19;6375528;27;20376;-64
2022/05/05 03:36:38;;;;;;;;;;;;;;;12.03;37.06;96407.28;6374397;27;19930;-64
2022/05/05 03:39:39;;;;;;;;;;;;;;;12.07;37.15;96400.78;6374265;27;19935;-64
2022/05/05 03:42:42;;;;;;;;;;;;;;;12.56;36.10;96402.16;6375159;27;20404;-64
2022/05/05 03:45:43;;;;;;;;;;;;;;;12.77;35.35;96409.34;6374924;27;19958;-64
2022/05/05 03:48:46;;;;;;;;;;;;;;;12.74;35.36;96394.59;6374415;27;19923;-64
2022/05/05 03:51:49;;;;;;;;;;;;;;;12.67;35.61;96395.19;6374392;27;19923;-64
2022/05/05 03:54:52;;;;;;;;;;;;;;;12.69;35.60;96395.91;6372886;27;19923;-63
2022/05/05 03:57:57;;;;;;;;;;;;;;;13.01;35.04;96388.00;6374860;27;19923;-64
2022/05/05 04:01:03;;;;;;;;;;;;;;;13.26;34.46;96378.91;6374738;27;19923;-64
2022/05/05 04:04:08;;;;;;;;;;;;;;;13.51;34.12;96387.44;6374525;27;19924;-64
2022/05/05 04:07:10;;;;;;;;;;;;;;;13.73;33.69;96387.28;6373868;27;19966;-65
2022/05/05 04:10:11;;;;;;;;;;;;;;;13.82;33.50;96391.78;6373761;27;19991;-63
2022/05/05 04:13:15;;;;;;;;;;;;;;;14.10;32.94;96389.41;6373199;27;19923;-65
2022/05/05 04:16:16;;;;;;;;;;;;;;;14.36;32.33;96385.31;6373526;27;19930;-63
2022/05/05 04:19:19;;;;;;;;;;;;;;;14.44;31.90;96386.47;6373448;27;19923;-64
2022/05/05 04:22:23;;;;;;;;;;;;;;;14.23;32.22;96390.00;6373458;27;19923;-64
2022/05/05 04:25:26;;;;;;;;;;;;;;;14.33;32.27;96388.25;6373484;27;19923;-63
2022/05/05 04:28:30;;;;;;;;;;;;;;;14.35;32.23;96393.38;6374165;27;19924;-64
2022/05/05 04:31:34;;;;;;;;;;;;;;;14.70;31.50;96379.72;6373984;27;19927;-64
2022/05/05 04:34:37;;;;;;;;;;;;;;;14.68;31.51;96381.66;6373139;27;19923;-64
2022/05/05 04:37:41;;;;;;;;;;;;;;;14.95;30.97;96374.88;6374048;27;19923;-65
2022/05/05 04:40:44;;;;;;;;;;;;;;;15.22;30.73;96366.22;6373797;27;19924;-64
2022/05/05 04:43:45;;;;;;;;;;;;;;;17.75;27.19;96371.03;6373304;27;19924;-65
2022/05/05 04:46:46;;;;;;;;;;;;;;;21.52;22.90;96377.06;6373622;27;19924;-64
2022/05/05 04:49:47;;;;;;;;;;;;;;;24.94;19.90;96382.97;6372737;27;20414;-65
2022/05/05 04:52:51;;;;;;;;;;;;;;;27.37;17.07;96387.75;6373267;27;19930;-65
2022/05/05 04:55:52;;;;;;;;;;;;;;;30.06;15.49;96387.09;6372258;27;19923;-64
2022/05/05 04:58:55;;;;;;;;;;;;;;;31.66;13.17;96385.63;6372607;27;19927;-65
2022/05/05 05:01:56;;;;;;;;;;;;;;;33.09;12.34;96387.84;6373175;27;19924;-64
2022/05/05 05:05:02;;;;;;;;;;;;;;;34.78;10.76;96391.25;6373077;27;20345;-64
2022/05/05 05:08:04;;;;;;;;;;;;;;;36.29;10.19;96390.28;6372393;27;19924;-65
2022/05/05 05:11:07;;;;;;;;;;;;;;;36.17;9.43;96383.19;6372324;27;20323;-65
2022/05/05 05:14:10;;;;;;;;;;;;;;;35.44;9.00;96377.03;6372748;27;19923;-64
2022/05/05 05:17:14;;;;;;;;;;;;;;;35.18;9.53;96390.63;6372025;27;19923;-64
2022/05/05 05:20:15;;;;;;;;;;;;;;;35.60;8.95;96386.13;6371769;27;20022;-64
2022/05/05 05:23:18;;;;;;;;;;;;;;;35.59;9.60;96379.84;6372792;27;19923;-64
2022/05/05 05:26:19;;;;;;;;;;;;;;;37.23;8.76;96375.00;6371857;27;19923;-64
2022/05/05 05:29:23;;;;;;;;;;;;;;;38.08;7.82;96378.63;6371923;27;19959;-65
2022/05/05 05:32:24;;;;;;;;;;;;;;;38.90;8.02;96375.94;6371820;27;20064;-64
2022/05/05 05:35:25;;;;;;;;;;;;;;;40.11;7.36;96396.53;6372015;27;19924;-65
2022/05/05 05:38:26;;;;;;;;;;;;;;;41.65;7.18;96393.69;6371666;27;19949;-65
2022/05/05 05:41:30;;;;;;;;;;;;;;;42.67;6.59;96382.88;6370779;27;20010;-65
2022/05/05 05:44:31;;;;;;;;;;;;;;;39.28;7.94;96368.53;6371520;27;19930;-64
2022/05/05 05:47:37;;;;;;;;;;;;;;;34.66;10.26;96355.13;6372107;27;19923;-64
2022/05/05 05:50:38;;;;;;;;;;;;;;;31.19;11.25;96364.06;6371051;27;20285;-65
2022/05/05 05:53:45;;;;;;;;;;;;;;;29.35;12.46;96354.38;6371864;27;20454;-64
2022/05/05 05:56:46;;;;;;;;;;;;;;;29.77;12.25;96341.66;6370091;27;19930;-65
2022/05/05 05:59:47;;;;;;;;;;;;;;;33.30;10.10;96339.00;6370501;27;19927;-65
2022/05/05 06:06:09;;;;;;;;;;;;;;;37.14;8.04;96359.41;6371393;27;19924;-63
2022/05/05 06:09:15;;;;;;;;;;;;;;;35.45;8.47;96370.50;6371942;27;19923;-65
2022/05/05 06:12:16;;;;;;;;;;;;;;;34.68;8.79;96337.41;6371819;27;19923;-64
2022/05/05 06:15:22;;;;;;;;;;;;;;;32.94;9.92;96346.72;6371543;27;20026;-64
2022/05/05 06:18:26;;;;;;;;;;;;;;;31.42;10.73;96340.59;6370861;27;19923;-64
2022/05/05 06:21:27;;;;;;;;;;;;;;;30.58;11.44;96330.22;6371545;27;19980;-64
2022/05/05 06:24:28;;;;;;;;;;;;;;;31.88;10.88;96327.78;6371105;28;19934;-64
2022/05/05 06:27:30;;;;;;;;;;;;;;;32.64;9.85;96339.00;6371177;28;19919;-64
2022/05/05 06:30:33;;;;;;;;;;;;;;;31.18;10.64;96329.81;6370485;28;20407;-63
2022/05/05 06:33:36;;;;;;;;;;;;;;;30.53;11.20;96324.69;6352066;28;19926;-65
2022/05/05 06:36:40;;;;;;;;;;;;;;;31.10;10.81;96328.31;6371402;28;19927;-64
2022/05/05 06:39:43;;;;;;;;;;;;;;;29.27;12.10;96308.63;6371496;28;19923;-64
2022/05/05 06:42:44;;;;;;;;;;;;;;;31.36;10.72;96325.28;6351845;28;20289;-64
2022/05/05 06:45:46;;;;;;;;;;;;;;;32.53;9.92;96319.00;6370491;28;20305;-64
2022/05/05 06:48:49;;;;;;;;;;;;;;;31.47;9.90;96305.34;6371066;28;20371;-65
2022/05/05 06:51:50;;;;;;;;;;;;;;;31.27;10.17;96322.91;6370212;27;19930;-63
2022/05/05 06:54:51;;;;;;;;;;;;;;;33.28;9.42;96316.59;6370206;28;20285;-64
2022/05/05 06:57:55;;;;;;;;;;;;;;;33.76;9.52;96303.97;6370721;28;19931;-64
2022/05/05 07:07:38;;;;;;;;;;;;;;;30.33;11.07;96297.94;6370638;28;19927;-64
2022/05/05 07:10:54;;;;;;;;;;;;;;;30.61;10.82;96299.88;6371308;28;19919;-63
2022/05/05 07:13:55;;;;;;;;;;;;;;;29.74;11.63;96308.78;6370250;28;19935;-64
2022/05/05 07:17:00;;;;;;;;;;;;;;;27.82;12.58;96293.06;6371041;28;19923;-65
2022/05/05 07:20:01;;;;;;;;;;;;;;;26.37;13.98;96291.81;6370244;28;19945;-64
2022/05/05 07:23:10;;;;;;;;;;;;;;;25.91;15.17;96303.56;6369987;28;19931;-64
2022/05/05 07:26:11;;;;;;;;;;;;;;;24.33;16.64;96303.00;6370176;28;19923;-64
2022/05/05 07:29:12;;;;;;;;;;;;;;;22.77;17.70;96291.41;6370187;27;19930;-64
2022/05/05 07:32:16;;;;;;;;;;;;;;;22.64;17.64;96285.91;6375550;27;19946;-65
2022/05/05 07:35:17;;;;;;;;;;;;;;;23.05;17.14;96277.28;6375100;27;19927;-63
2022/05/05 07:38:18;;;;;;;;;;;;;;;23.79;16.56;96273.34;6374706;27;19923;-66
2022/05/05 07:41:22;;;;;;;;;;;;;;;25.37;15.14;96272.28;6374763;27;20335;-64
2022/05/05 07:44:24;;;;;;;;;;;;;;;25.69;14.81;96259.00;6374185;27;19931;-64
2022/05/05 07:47:28;;;;;;;;;;;;;;;24.90;15.40;96239.06;6375123;27;19924;-65
2022/05/05 07:50:31;;;;;;;;;;;;;;;25.41;14.94;96257.34;6374569;27;19923;-64
2022/05/05 07:53:35;;;;;;;;;;;;;;;26.51;14.43;96254.03;6374946;27;19923;-64
2022/05/05 07:56:40;;;;;;;;;;;;;;;25.47;14.87;96242.22;6374873;27;19923;-64
2022/05/05 07:59:45;;;;;;;;;;;;;;;24.58;15.57;96252.25;6374069;27;19928;-64
2022/05/05 08:02:51;;;;;;;;;;;;;;;25.03;15.33;96233.72;6374803;27;19923;-63
2022/05/05 08:05:57;;;;;;;;;;;;;;;25.15;15.22;96242.03;6374556;27;19923;-65
2022/05/05 08:09:03;;;;;;;;;;;;;;;24.61;15.52;96246.47;6374658;27;20443;-64
2022/05/05 08:12:05;;;;;;;;;;;;;;;25.52;14.96;96247.81;6373552;27;20308;-65
2022/05/05 08:15:07;;;;;;;;;;;;;;;28.53;12.40;96249.22;6373735;27;19923;-65
2022/05/05 08:18:10;;;;;;;;;;;;;;;30.93;10.93;96250.56;6355445;27;19968;-65
2022/05/05 08:21:12;;;;;;;;;;;;;;;33.60;9.04;96251.19;6373652;27;20316;-64
2022/05/05 08:30:51;;;;;;;;;;;;;;;33.03;9.16;96236.22;6373222;27;19930;-65
2022/05/05 08:33:52;;;;;;;;;;;;;;;30.67;10.18;96235.63;6373767;27;19929;-64
2022/05/05 08:36:54;;;;;;;;;;;;;;;28.39;11.43;96226.06;6373290;27;19956;-64
2022/05/05 08:39:57;;;;;;;;;;;;;;;28.30;11.95;96232.84;6373583;27;19939;-64
2022/05/05 08:42:59;;;;;;;;;;;;;;;30.22;10.81;96248.03;6373316;27;19923;-64
2022/05/05 08:46:02;;;;;;;;;;;;;;;29.94;10.85;96246.84;6372442;27;19931;-64
2022/05/05 08:49:08;;;;;;;;;;;;;;;29.56;11.37;96243.78;6372322;27;20308;-64
2022/05/05 08:52:10;;;;;;;;;;;;;;;28.37;11.88;96223.59;6373407;27;19923;-64
2022/05/05 08:55:14;;;;;;;;;;;;;;;29.23;11.47;96226.19;6373425;27;20021;-64
2022/05/05 08:58:18;;;;;;;;;;;;;;;28.49;11.67;96215.56;6373255;27;19923;-64
2022/05/05 09:01:19;;;;;;;;;;;;;;;26.75;13.01;96226.31;6371715;27;19923;-65
2022/05/05 09:04:20;;;;;;;;;;;;;;;25.95;13.57;96228.50;6372659;27;20352;-65
2022/05/05 09:07:21;;;;;;;;;;;;;;;26.33;13.01;96222.34;6372316;27;19924;-64
2022/05/05 09:10:40;;;;;;;;;;;;;;;25.93;13.57;96228.72;6372311;27;19923;-64
2022/05/05 09:13:44;;;;;;;;;;;;;;;27.02;12.85;96224.25;6372620;27;19923;-65
2022/05/05 09:16:48;;;;;;;;;;;;;;;26.86;12.68;96217.53;6354544;27;19923;-64
2022/05/05 09:19:51;;;;;;;;;;;;;;;27.45;12.43;96230.78;6371887;27;19923;-65
2022/05/05 09:22:52;;;;;;;;;;;;;;;29.79;11.06;96238.38;6371403;27;19982;-64
2022/05/05 09:26:00;;;;;;;;;;;;;;;30.76;10.48;96224.13;6372403;27;19923;-65
2022/05/05 09:29:19;;;;;;;;;;;;;;;31.20;10.14;96218.97;6372340;27;20300;-65
2022/05/05 09:32:26;;;;;;;;;;;;;;;29.98;10.55;96212.78;6371711;27;19933;-64
2022/05/05 09:35:27;;;;;;;;;;;;;;;28.15;11.83;96192.66;6371131;27;20427;-65
2022/05/05 09:38:46;;;;;;;;;;;;;;;30.07;10.88;96209.72;6371673;27;19923;-65
2022/05/05 09:41:49;;;;;;;;;;;;;;;32.70;9.01;96199.06;6370849;27;19923;-64
2022/05/05 09:44:50;;;;;;;;;;;;;;;31.69;9.95;96202.91;6371093;27;19923;-64
2022/05/05 09:47:55;;;;;;;;;;;;;;;29.66;11.08;96214.22;6371640;27;19929;-64
2022/05/05 09:50:56;;;;;;;;;;;;;;;30.21;10.73;96213.81;6371513;27;19923;-64
2022/05/05 10:00:45;;;;;;;;;;;;;;;29.40;11.31;96188.38;6371682;27;19923;-65
2022/05/05 10:04:00;;;;;;;;;;;;;;;27.83;12.45;96194.69;6371386;27;19927;-64
2022/05/05 10:07:07;;;;;;;;;;;;;;;27.09;12.56;96178.28;6370554;27;19920;-65
2022/05/05 10:10:08;;;;;;;;;;;;;;;27.31;12.42;96166.06;6371308;27;19927;-65
2022/05/05 10:13:13;;;;;;;;;;;;;;;27.13;12.13;96173.28;6371351;27;19928;-64
2022/05/05 10:16:20;;;;;;;;;;;;;;;26.46;13.05;96164.81;6371314;27;19924;-65
2022/05/05 10:19:25;;;;;;;;;;;;;;;27.36;12.56;96188.91;6371490;27;19923;-64
2022/05/05 10:22:34;;;;;;;;;;;;;;;26.27;12.79;96163.84;6371610;27;20386;-64
2022/05/05 10:25:37;;;;;;;;;;;;;;;25.06;13.92;96174.06;6370722;28;20391;-66
2022/05/05 10:28:44;;;;;;;;;;;;;;;24.32;14.89;96171.47;6371469;28;19928;-65
2022/05/05 10:31:47;;;;;;;;;;;;;;;23.54;15.27;96191.34;6371523;28;19927;-63
2022/05/05 10:34:54;;;;;;;;;;;;;;;23.17;15.81;96154.97;6371287;28;19923;-65
2022/05/05 10:37:57;;;;;;;;;;;;;;;22.59;16.25;96147.06;6370802;28;20427;-65
2022/05/05 10:41:01;;;;;;;;;;;;;;;22.63;16.14;96152.84;6371285;28;19938;-64
2022/05/05 10:44:20;;;;;;;;;;;;;;;22.99;15.90;96160.00;6370814;28;20433;-65
2022/05/05 10:47:23;;;;;;;;;;;;;;;24.05;15.06;96139.13;6370565;28;19923;-64
2022/05/05 10:50:28;;;;;;;;;;;;;;;24.24;14.73;96158.22;6370767;28;19924;-66
2022/05/05 10:53:36;;;;;;;;;;;;;;;25.06;14.54;96146.34;6371190;28;20002;-65
2022/05/05 10:56:40;;;;;;;;;;;;;;;24.83;14.58;96168.28;6371115;28;19923;-65
2022/05/05 11:00:01;;;;;;;;;;;;;;;24.39;14.88;96142.72;6370474;28;19924;-64
2022/05/05 11:03:07;;;;;;;;;;;;;;;24.92;14.39;96150.06;6370779;27;20014;-65
2022/05/05 11:06:18;;;;;;;;;;;;;;;25.54;13.44;96135.31;6375889;27;20304;-65
2022/05/05 11:09:32;;;;;;;;;;;;;;;25.72;13.37;96151.63;6375237;27;19930;-66
2022/05/05 11:12:34;;;;;;;;;;;;;;;25.64;13.16;96132.16;6374702;27;20023;-64
2022/05/05 11:22:35;;;;;;;;;;;;;;;23.49;15.48;96129.34;6375732;27;20017;-65
2022/05/05 11:25:42;;;;;;;;;;;;;;;24.43;14.68;96125.22;6375706;27;19930;-65
2022/05/05 11:28:47;;;;;;;;;;;;;;;24.11;15.06;96127.56;6375622;27;19968;-64
2022/05/05 11:31:57;;;;;;;;;;;;;;;23.31;16.17;96126.38;6375388;27;19924;-64
2022/05/05 11:34:59;;;;;;;;;;;;;;;22.81;16.54;96123.72;6374400;27;19930;-65
2022/05/05 11:38:05;;;;;;;;;;;;;;;23.81;15.90;96120.84;6375079;27;20025;-64
2022/05/05 11:41:08;;;;;;;;;;;;;;;25.12;15.08;96144.69;6375339;27;19923;-65
2022/05/05 11:44:17;;;;;;;;;;;;;;;25.14;14.57;96121.03;6375098;27;19923;-65
2022/05/05 11:47:20;;;;;;;;;;;;;;;25.08;14.77;96110.09;6374398;27;20004;-64
2022/05/05 11:50:21;;;;;;;;;;;;;;;24.44;15.29;96110.72;6374070;27;19924;-64
2022/05/05 11:53:28;;;;;;;;;;;;;;;24.39;15.36;96113.97;6374768;27;19923;-64
2022/05/05 11:56:30;;;;;;;;;;;;;;;24.44;15.12;96105.34;6374318;27;19926;-65
2022/05/05 12:02:56;;;;;;;;;;;;;;;24.35;14.82;96091.25;6373250;27;19929;-64
2022/05/05 12:05:57;;;;;;;;;;;;;;;23.76;14.55;96102.66;6338562;27;19930;-64
2022/05/05 12:09:01;;;;;;;;;;;;;;;23.38;14.92;96099.53;6373644;27;19930;-64
2022/05/05 12:12:08;;;;;;;;;;;;;;;23.47;14.97;96109.13;6355393;27;20303;-64
2022/05/05 12:15:16;;;;;;;;;;;;;;;23.29;15.12;96090.84;6373342;27;19923;-65
2022/05/05 12:18:19;;;;;;;;;;;;;;;23.02;15.43;96096.06;6372992;27;19923;-65
2022/05/05 12:21:26;;;;;;;;;;;;;;;22.89;15.42;96092.41;6373493;27;19924;-66
2022/05/05 12:24:28;;;;;;;;;;;;;;;22.72;16.12;96073.91;6372721;27;20476;-65
2022/05/05 12:27:29;;;;;;;;;;;;;;;22.58;16.50;96066.81;6373784;27;20016;-68
2022/05/05 12:30:31;;;;;;;;;;;;;;;21.86;17.09;96090.00;6373546;27;19923;-64
2022/05/05 12:33:36;;;;;;;;;;;;;;;21.27;17.33;96060.63;6373839;27;20390;-65
2022/05/05 12:36:42;;;;;;;;;;;;;;;20.78;18.01;96066.56;6339167;27;20029;-67
2022/05/05 12:39:55;;;;;;;;;;;;;;;21.27;17.40;96063.31;6374051;27;19923;-65
2022/05/05 12:43:00;;;;;;;;;;;;;;;21.49;17.13;96075.78;6373011;27;19923;-65
2022/05/05 12:46:03;;;;;;;;;;;;;;;21.28;17.32;96081.03;6372614;27;19923;-64
2022/05/05 12:49:07;;;;;;;;;;;;;;;20.56;17.94;96063.75;6373201;27;19923;-67
2022/05/05 12:59:36;;;;;;;;;;;;;;;20.03;18.44;96044.13;6372272;27;20308;-64
2022/05/05 13:02:14;;;;;;;;;;;;;;;19.39;19.65;96031.00;6372178;27;19923;-65
2022/05/05 13:05:15;;;;;;;;;;;;;;;19.99;19.07;96034.00;6372621;27;19930;-68
2022/05/05 13:08:16;;;;;;;;;;;;;;;20.33;17.90;96033.53;6371918;27;20304;-65
2022/05/05 13:11:21;;;;;;;;;;;;;;;20.21;18.22;96037.63;6353538;27;20444;-64
2022/05/05 13:14:25;;;;;;;;;;;;;;;19.89;18.39;96032.38;6372592;27;19998;-65
2022/05/05 13:17:29;;;;;;;;;;;;;;;19.87;18.88;96022.88;6372573;27;19924;-65
2022/05/05 13:20:30;;;;;;;;;;;;;;;20.01;18.87;96030.09;6353637;27;19924;-65
2022/05/05 13:23:32;;;;;;;;;;;;;;;20.03;18.61;96024.59;6371514;27;19941;-64
2022/05/05 13:26:38;;;;;;;;;;;;;;;19.83;19.10;96011.72;6372293;27;20308;-65
2022/05/05 13:29:45;;;;;;;;;;;;;;;19.65;18.65;96029.84;6372270;27;19923;-65
2022/05/05 13:32:48;;;;;;;;;;;;;;;19.28;19.25;96021.53;6372166;27;20385;-64
2022/05/05 13:35:50;;;;;;;;;;;;;;;19.60;19.17;96026.88;6353406;27;19919;-64
2022/05/05 13:38:53;;;;;;;;;;;;;;;19.80;18.45;96004.06;6371002;27;20363;-64
2022/05/05 13:41:56;;;;;;;;;;;;;;;19.57;18.78;96038.72;6371326;27;19923;-64
2022/05/05 13:45:00;;;;;;;;;;;;;;;19.22;19.24;96005.38;6372041;27;20392;-65
2022/05/05 13:48:01;;;;;;;;;;;;;;;18.86;19.41;96007.72;6371011;27;20392;-65
2022/05/05 13:51:04;;;;;;;;;;;;;;;18.61;19.70;95991.78;6370756;27;19923;-64
2022/05/05 13:54:05;;;;;;;;;;;;;;;18.42;20.03;95989.50;6371064;27;19923;-64
2022/05/05 13:57:08;;;;;;;;;;;;;;;18.25;20.61;95984.19;6371184;27;19924;-65
2022/05/05 14:00:10;;;;;;;;;;;;;;;18.37;20.49;95974.88;6370892;27;19991;-64
2022/05/05 14:03:14;;;;;;;;;;;;;;;18.49;20.44;95969.19;6370733;27;20117;-64
2022/05/05 14:06:15;;;;;;;;;;;;;;;18.58;20.36;95968.97;6370890;27;19930;-64
2022/05/05 14:12:39;;;;;;;;;;;;;;;18.55;20.00;95968.50;6370863;27;19931;-64
2022/05/05 14:15:45;;;;;;;;;;;;;;;18.48;19.99;95956.84;6370394;27;20134;-65
2022/05/05 14:18:50;;;;;;;;;;;;;;;18.53;19.29;95970.50;6371750;27;19923;-66
2022/05/05 14:21:54;;;;;;;;;;;;;;;18.47;19.50;95966.66;6371637;27;19931;-63
2022/05/05 14:24:56;;;;;;;;;;;;;;;18.43;19.74;95959.19;6370427;27;20257;-64
2022/05/05 14:28:02;;;;;;;;;;;;;;;18.21;19.99;95955.44;6371126;28;20384;-63
2022/05/05 14:31:06;;;;;;;;;;;;;;;17.80;20.32;95948.28;6371365;28;19923;-66
2022/05/05 14:34:09;;;;;;;;;;;;;;;17.94;20.21;95947.63;6370726;28;19923;-65
2022/05/05 14:37:12;;;;;;;;;;;;;;;17.66;20.57;95930.31;6370847;28;20340;-65
2022/05/05 14:40:13;;;;;;;;;;;;;;;17.41;20.75;95935.63;6374148;27;19938;-65
2022/05/05 14:43:15;;;;;;;;;;;;;;;17.60;20.68;95936.28;6375625;27;20307;-62
2022/05/05 14:46:16;;;;;;;;;;;;;;;17.61;20.36;95930.00;6375307;27;19919;-65
2022/05/05 14:49:17;;;;;;;;;;;;;;;17.43;20.83;95924.81;6375464;27;20444;-64
2022/05/05 14:52:22;;;;;;;;;;;;;;;17.25;21.02;95936.44;6376159;27;20345;-65
2022/05/05 14:55:25;;;;;;;;;;;;;;;17.34;20.66;95918.66;6376024;27;19927;-66
2022/05/05 14:58:31;;;;;;;;;;;;;;;17.15;20.92;95943.72;6376071;27;19923;-65
2022/05/05 15:01:35;;;;;;;;;;;;;;;16.97;21.11;95917.28;6375212;27;19923;-64
2022/05/05 15:04:36;;;;;;;;;;;;;;;16.81;21.21;95922.53;6375330;27;19930;-65
2022/05/05 15:07:41;;;;;;;;;;;;;;;16.86;21.15;95920.22;6374784;27;19923;-65
2022/05/05 15:10:42;;;;;;;;;;;;;;;16.72;21.24;95913.66;6373997;27;20397;-65
2022/05/05 15:13:49;;;;;;;;;;;;;;;16.46;21.55;95921.72;6375624;27;19965;-66
2022/05/05 15:16:53;;;;;;;;;;;;;;;16.35;21.69;95924.63;6375815;27;20377;-65
2022/05/05 15:19:57;;;;;;;;;;;;;;;16.32;21.79;95911.69;6374770;27;19931;-63
2022/05/05 15:23:00;;;;;;;;;;;;;;;16.40;21.79;95911.72;6357875;27;19923;-67
2022/05/05 15:26:02;;;;;;;;;;;;;;;16.22;21.85;95929.53;6356355;27;19927;-65
2022/05/05 15:29:03;;;;;;;;;;;;;;;16.01;22.23;95927.28;6374142;27;19930;-64
2022/05/05 15:32:05;;;;;;;;;;;;;;;16.13;22.08;95926.00;6374043;27;20392;-64
2022/05/05 15:35:09;;;;;;;;;;;;;;;16.08;22.17;95936.28;6374802;27;19923;-64
2022/05/05 15:38:10;;;;;;;;;;;;;;;16.00;22.41;95930.91;6374490;27;20022;-64
2022/05/05 15:41:13;;;;;;;;;;;;;;;15.85;22.56;95936.78;6374517;27;19924;-65
2022/05/05 15:44:17;;;;;;;;;;;;;;;15.79;22.64;95923.31;6373843;27;19923;-65
2022/05/05 15:47:18;;;;;;;;;;;;;;;15.68;22.75;95943.81;6374219;27;20321;-65
2022/05/05 15:50:19;;;;;;;;;;;;;;;15.66;22.82;95945.72;6372981;27;19923;-65
2022/05/05 15:53:20;;;;;;;;;;;;;;;15.48;23.05;95942.25;6374266;27;19923;-64
2022/05/05 15:56:23;;;;;;;;;;;;;;;15.32;23.24;95931.53;6374308;27;20488;-65
2022/05/05 15:59:24;;;;;;;;;;;;;;;15.11;23.55;95943.22;6355465;27;19924;-65
2022/05/05 16:02:26;;;;;;;;;;;;;;;15.18;23.48;95946.97;6374050;27;19934;-64
2022/05/05 16:05:32;;;;;;;;;;;;;;;15.33;23.42;95959.69;6356725;27;19931;-66
2022/05/05 16:08:38;;;;;;;;;;;;;;;15.51;23.31;95979.06;6374676;27;20022;-65
2022/05/05 16:11:41;;;;;;;;;;;;;;;15.24;24.58;95985.28;6373924;27;19927;-64
2022/05/05 16:14:47;;;;;;;;;;;;;;;15.01;27.18;95996.28;6374304;27;19923;-64
2022/05/05 16:17:48;;;;;;;;;;;;;;;14.99;29.74;95984.19;6373579;27;19931;-65
2022/05/05 16:20:49;;;;;;;;;;;;;;;14.82;30.93;96005.16;6373343;27;19923;-65
2022/05/05 16:23:50;;;;;;;;;;;;;;;14.41;32.33;96000.28;6373810;27;19923;-65
2022/05/05 16:30:11;;;;;;;;;;;;;;;13.84;36.30;96030.22;6373207;27;19923;-64
2022/05/05 16:33:17;;;;;;;;;;;;;;;13.75;36.65;96046.91;6373468;27;19929;-65
2022/05/05 16:36:19;;;;;;;;;;;;;;;13.51;37.98;96065.81;6373629;27;19919;-66
2022/05/05 16:39:24;;;;;;;;;;;;;;;13.32;39.33;96060.50;6373123;27;19923;-65
2022/05/05 16:42:25;;;;;;;;;;;;;;;13.09;40.32;96087.09;6373022;27;19924;-65
2022/05/05 16:45:27;;;;;;;;;;;;;;;12.70;41.07;96099.31;6372724;27;19923;-65
2022/05/05 16:48:29;;;;;;;;;;;;;;;12.35;41.70;96092.59;6373031;27;19923;-65
2022/05/05 16:51:37;;;;;;;;;;;;;;;12.22;42.20;96091.94;6373685;27;19924;-64
2022/05/05 16:54:41;;;;;;;;;;;;;;;11.87;42.57;96093.91;6355709;27;19923;-65
2022/05/05 16:57:47;;;;;;;;;;;;;;;11.48;43.16;96108.50;6372987;27;19924;-64
2022/05/05 17:00:49;;;;;;;;;;;;;;;11.35;43.14;96113.94;6372613;27;19923;-65